Airfield :
LOGIN :

Register | Disclaimer

   EN    FR    IT 

 










Legend :    VFR   Marginal VFR   IFR   Intensive IFR   Very Intensive IFR
Visi :
Ceiling :
>= 8 km
>= 3000ft
5 to 8 km
1000 to 3000 ft
1500m to 5 km
500 to 1000 ft
800 to 1500m
200 to 500 ft
< 800m
< 200 ft
Symbols :   Thunderstorms  Fog  Heavy snow  Heavy precipitations  Wind > 20 kt
SIGMETs :     Misc.  Thunderstorms  Icing  Turbulence  Mountain Waves  Volcanic Ashes






- Airport Elevation : 33 ft
- IATA code : MHZ


EGUN - RAF Mildenhall

CURRENT METAR :
  • 250656Z 00000KT 8000 BR OVC012 02/02 A3052 RMK AO2A SLP339 T00240024

EXPIRED METARs :
  • 250556Z 29003KT 8000 BR OVC013 02/02 A3052 RMK AO2A SLP339 T00240024 10030 20023 57006
  • 250456Z 00000KT 8000 BR OVC013 02/02 A3052 RMK AO2A SLP339 T00240024

TAF TAF EGUN
Valid from the 25 at 04:00 until the 26 at 10:00 UTC


250400Z 2504/2610 23004KT 6000 BR OVC012 QNH3052INS
TEMPO 2504/2509 5000 BR SCT015 BKN020
BECMG 2510/2512 25009KT 9000 BR OVC020 QNH3050INS
TEMPO 2512/2518 OVC015
BECMG 2518/2519 27009KT 8000 BR OVC015 QNH3051INS
BECMG 2523/2524 28009KT 6000 BR SCT015 BKN020 QNH3047INS
BECMG 2608/2609 26012KT 9000 BR SCT010 BKN015 OVC020 620152 QNH3049INS TX03/2504Z TNM01/2600Z



MET'MAP, your aeronautical weather chart ! - Copyright ORBIFLY December 2007 - Disclaimer

ORBIFLY MET'MAP TEAM :

Programming & Development : Alexandra Zaïnal
Original concept : Baudouin d'Aumeries
Technical & hardware support : Manuel Goepfert
Assistance : Marc-Olivier Méhu

Contact : metmap@orbifly.com




SOURCES & CREDITS :

   NOAA